Lhasa, China
Current Conditions -  °F | °C
As of 3:50 PM on Thursday 29 Jan 2015 (Local Time) from VQPR Reporting Station
Broken Clouds Broken Clouds  
Wind Chill: 55°   Ceiling: 20000
Heat Index: 55°   Visibility: 6mi
Dew Point:   Wind: 15mph
Humidity: 12%   Direction: 170°S
Pressure: 30.03"   Gusts: NA
Location:  29.7°N, 91.13°E
Report Text: VQPR 290750Z 17013KT 9999 SCT100 BKN200 13/M16 Q1017 NOSIG
Loading
Personal Weather Stations






























Interactive Weather Map New forecast layout! Learn more

10-Day Weather Forecast

Advertisements
Track Severe Weather on mobile